Main page
METAR-TAF:

METAR-TAF

Airports :

Riyadh, Saudi Arabia

Riyadh Air Base

latitude: 24-43N, longitude: 046-44E, elevation: 635 m

METAR: missing

Time: 23:30 (20:30 UTC)

Forecast

The report was made 9 hours and 30 minutes ago, at 11:00 UTC
Forecast valid from 30 at 12 UTC to 01 at 18 UTC
Wind 8 kt from the North with gusts up to 18 kt
Visibility: 6000 m
Scattered clouds at a height of 4000 ft
Scattered clouds at a height of 10000 ft
Temporary
from 30 at 12 UTC to 30 at 20 UTC
Visibility: 3000 m
Few clouds at a height of 3500 ft, Cumulonimbus.
widespread dust, Blowing dust

TAF: OERY 301100Z 3012/0118 36008G18KT 6000 SCT040 SCT100 TEMPO 3012/3020 3000 DU BLDU FEW035CB

Weather observations and forecasts of more than 4000 airports (METAR and TAF reports).

The available stations are represented by yellow and red dots on the map.

Hover mouse over dot to see the name of the station.

Then click to see weather observations and forecasts.

To change the map : click on the green buttons with a black cross to zoom in, on the green button with a dash to zoom out, or on the green arrows for adjacent maps.


METAR-TAF: